sensor_id;sensor_type;location;lat;lon;timestamp;pressure;altitude;pressure_sealevel;temperature;humidity
73974;BME280;62336;-26.094;27.994;2023-12-14T00:01:03;84738.83;;;31.37;21.80
73974;BME280;62336;-26.094;27.994;2023-12-14T00:03:29;84743.95;;;31.31;22.00
73974;BME280;62336;-26.094;27.994;2023-12-14T00:05:55;84738.35;;;31.71;21.72
73974;BME280;62336;-26.094;27.994;2023-12-14T00:08:21;84744.86;;;31.42;22.21
73974;BME280;62336;-26.094;27.994;2023-12-14T00:10:46;84740.66;;;30.92;22.16
73974;BME280;62336;-26.094;27.994;2023-12-14T00:13:12;84730.02;;;31.13;22.04
73974;BME280;62336;-26.094;27.994;2023-12-14T00:15:38;84728.80;;;31.31;21.90
73974;BME280;62336;-26.094;27.994;2023-12-14T00:18:04;84729.78;;;31.50;22.00
73974;BME280;62336;-26.094;27.994;2023-12-14T00:20:30;84722.86;;;32.05;21.27
73974;BME280;62336;-26.094;27.994;2023-12-14T00:22:56;84728.11;;;31.67;21.82
73974;BME280;62336;-26.094;27.994;2023-12-14T00:25:21;84728.31;;;31.12;22.26
73974;BME280;62336;-26.094;27.994;2023-12-14T00:27:47;84725.15;;;31.09;22.10
73974;BME280;62336;-26.094;27.994;2023-12-14T00:30:13;84725.01;;;31.22;21.92
73974;BME280;62336;-26.094;27.994;2023-12-14T00:32:39;84726.10;;;31.49;21.99
73974;BME280;62336;-26.094;27.994;2023-12-14T00:35:05;84729.51;;;30.85;22.20
73974;BME280;62336;-26.094;27.994;2023-12-14T00:37:31;84721.43;;;31.35;21.84
73974;BME280;62336;-26.094;27.994;2023-12-14T00:39:56;84720.17;;;31.18;22.04
73974;BME280;62336;-26.094;27.994;2023-12-14T00:42:22;84725.56;;;31.75;21.62
73974;BME280;62336;-26.094;27.994;2023-12-14T00:44:48;84732.04;;;31.48;21.75
73974;BME280;62336;-26.094;27.994;2023-12-14T00:47:14;84725.38;;;31.45;21.72
73974;BME280;62336;-26.094;27.994;2023-12-14T00:49:40;84730.86;;;31.16;22.17
73974;BME280;62336;-26.094;27.994;2023-12-14T00:52:06;84732.72;;;30.49;22.64
73974;BME280;62336;-26.094;27.994;2023-12-14T00:54:32;84734.51;;;31.30;21.90
73974;BME280;62336;-26.094;27.994;2023-12-14T00:56:57;84734.02;;;31.20;21.96
73974;BME280;62336;-26.094;27.994;2023-12-14T00:59:24;84719.05;;;32.02;21.20
73974;BME280;62336;-26.094;27.994;2023-12-14T01:01:49;84716.92;;;31.98;21.57
73974;BME280;62336;-26.094;27.994;2023-12-14T01:04:15;84712.07;;;31.42;22.03
73974;BME280;62336;-26.094;27.994;2023-12-14T01:06:40;84709.86;;;30.69;22.45
73974;BME280;62336;-26.094;27.994;2023-12-14T01:09:06;84707.97;;;30.50;22.48
73974;BME280;62336;-26.094;27.994;2023-12-14T01:11:33;84706.64;;;30.89;22.23
73974;BME280;62336;-26.094;27.994;2023-12-14T01:13:58;84703.71;;;31.41;21.81
73974;BME280;62336;-26.094;27.994;2023-12-14T01:16:26;84695.49;;;31.87;21.77
73974;BME280;62336;-26.094;27.994;2023-12-14T01:18:50;84701.69;;;31.33;21.77
73974;BME280;62336;-26.094;27.994;2023-12-14T01:21:16;84702.10;;;31.18;22.17
73974;BME280;62336;-26.094;27.994;2023-12-14T01:23:41;84702.85;;;30.87;22.21
73974;BME280;62336;-26.094;27.994;2023-12-14T01:26:07;84698.38;;;31.59;22.03
73974;BME280;62336;-26.094;27.994;2023-12-14T01:28:34;84695.20;;;31.78;21.51
73974;BME280;62336;-26.094;27.994;2023-12-14T01:30:59;84698.77;;;31.72;21.77
73974;BME280;62336;-26.094;27.994;2023-12-14T01:33:25;84689.14;;;31.26;21.85
73974;BME280;62336;-26.094;27.994;2023-12-14T01:35:50;84688.02;;;31.55;21.57
73974;BME280;62336;-26.094;27.994;2023-12-14T01:38:16;84698.15;;;30.80;22.45
73974;BME280;62336;-26.094;27.994;2023-12-14T01:40:43;84690.62;;;31.07;22.39
73974;BME280;62336;-26.094;27.994;2023-12-14T01:43:09;84683.28;;;31.08;22.20
73974;BME280;62336;-26.094;27.994;2023-12-14T01:45:35;84684.50;;;31.53;22.00
73974;BME280;62336;-26.094;27.994;2023-12-14T01:47:59;84682.09;;;31.05;22.14
73974;BME280;62336;-26.094;27.994;2023-12-14T01:50:25;84684.56;;;32.01;21.78
73974;BME280;62336;-26.094;27.994;2023-12-14T01:52:51;84689.09;;;31.15;22.16
73974;BME280;62336;-26.094;27.994;2023-12-14T01:55:17;84681.41;;;31.06;22.21
73974;BME280;62336;-26.094;27.994;2023-12-14T01:57:43;84682.17;;;31.51;21.79
73974;BME280;62336;-26.094;27.994;2023-12-14T02:00:17;84681.20;;;31.55;21.79
73974;BME280;62336;-26.094;27.994;2023-12-14T02:02:35;84687.96;;;31.48;21.74
73974;BME280;62336;-26.094;27.994;2023-12-14T02:05:00;84686.27;;;31.23;21.99
73974;BME280;62336;-26.094;27.994;2023-12-14T02:07:26;84685.08;;;30.86;22.17
73974;BME280;62336;-26.094;27.994;2023-12-14T02:09:52;84680.93;;;31.33;22.26
73974;BME280;62336;-26.094;27.994;2023-12-14T02:12:18;84672.71;;;31.44;21.93
73974;BME280;62336;-26.094;27.994;2023-12-14T02:14:44;84672.06;;;31.69;21.60
73974;BME280;62336;-26.094;27.994;2023-12-14T02:17:09;84669.10;;;32.31;21.46
73974;BME280;62336;-26.094;27.994;2023-12-14T02:19:35;84671.98;;;31.39;22.22
73974;BME280;62336;-26.094;27.994;2023-12-14T02:22:01;84671.28;;;31.11;22.15
73974;BME280;62336;-26.094;27.994;2023-12-14T02:24:26;84670.65;;;31.66;21.90
73974;BME280;62336;-26.094;27.994;2023-12-14T02:26:53;84676.42;;;31.13;22.08
73974;BME280;62336;-26.094;27.994;2023-12-14T02:29:18;84683.47;;;30.39;22.75
73974;BME280;62336;-26.094;27.994;2023-12-14T02:31:44;84680.45;;;30.99;22.46
73974;BME280;62336;-26.094;27.994;2023-12-14T02:34:10;84669.34;;;31.47;21.90
73974;BME280;62336;-26.094;27.994;2023-12-14T02:36:36;84672.82;;;31.47;21.82
73974;BME280;62336;-26.094;27.994;2023-12-14T02:39:01;84680.26;;;31.27;22.45
73974;BME280;62336;-26.094;27.994;2023-12-14T02:41:28;84676.06;;;31.57;22.01
73974;BME280;62336;-26.094;27.994;2023-12-14T02:43:53;84672.98;;;31.30;22.03
73974;BME280;62336;-26.094;27.994;2023-12-14T02:46:19;84676.36;;;31.46;21.92
73974;BME280;62336;-26.094;27.994;2023-12-14T02:48:45;84676.20;;;31.61;21.73
73974;BME280;62336;-26.094;27.994;2023-12-14T02:51:13;84688.90;;;31.31;22.05
73974;BME280;62336;-26.094;27.994;2023-12-14T02:53:36;84687.48;;;31.05;22.49
73974;BME280;62336;-26.094;27.994;2023-12-14T02:56:03;84687.43;;;31.32;22.33
73974;BME280;62336;-26.094;27.994;2023-12-14T02:58:28;84691.21;;;30.85;22.48
73974;BME280;62336;-26.094;27.994;2023-12-14T03:00:53;84692.57;;;31.08;22.29
73974;BME280;62336;-26.094;27.994;2023-12-14T03:03:19;84696.16;;;30.80;22.58
73974;BME280;62336;-26.094;27.994;2023-12-14T03:05:44;84695.04;;;30.92;22.11
73974;BME280;62336;-26.094;27.994;2023-12-14T03:08:10;84699.43;;;31.38;22.17
73974;BME280;62336;-26.094;27.994;2023-12-14T03:10:36;84689.14;;;31.78;21.83
73974;BME280;62336;-26.094;27.994;2023-12-14T03:13:02;84699.33;;;30.87;22.48
73974;BME280;62336;-26.094;27.994;2023-12-14T03:15:28;84702.63;;;30.43;22.89
73974;BME280;62336;-26.094;27.994;2023-12-14T03:17:53;84707.87;;;31.78;22.30
73974;BME280;62336;-26.094;27.994;2023-12-14T03:20:20;84706.41;;;31.25;22.40
73974;BME280;62336;-26.094;27.994;2023-12-14T03:22:45;84708.90;;;30.96;22.49
73974;BME280;62336;-26.094;27.994;2023-12-14T03:25:11;84710.65;;;30.52;22.90
73974;BME280;62336;-26.094;27.994;2023-12-14T03:27:37;84708.18;;;30.55;22.84
73974;BME280;62336;-26.094;27.994;2023-12-14T03:30:03;84714.32;;;31.05;22.83
73974;BME280;62336;-26.094;27.994;2023-12-14T03:32:28;84717.55;;;31.83;22.20
73974;BME280;62336;-26.094;27.994;2023-12-14T03:34:54;84723.27;;;31.19;22.45
73974;BME280;62336;-26.094;27.994;2023-12-14T03:37:20;84725.84;;;31.20;22.44
73974;BME280;62336;-26.094;27.994;2023-12-14T03:39:46;84728.90;;;31.23;22.20
73974;BME280;62336;-26.094;27.994;2023-12-14T03:42:12;84734.31;;;31.07;22.62
73974;BME280;62336;-26.094;27.994;2023-12-14T03:44:37;84734.35;;;31.55;22.23
73974;BME280;62336;-26.094;27.994;2023-12-14T03:47:04;84737.45;;;30.79;22.85
73974;BME280;62336;-26.094;27.994;2023-12-14T03:49:28;84743.15;;;31.02;22.95
73974;BME280;62336;-26.094;27.994;2023-12-14T03:51:54;84747.34;;;30.52;23.04
73974;BME280;62336;-26.094;27.994;2023-12-14T03:54:20;84747.35;;;30.94;22.94
73974;BME280;62336;-26.094;27.994;2023-12-14T03:56:45;84747.39;;;31.07;22.86
73974;BME280;62336;-26.094;27.994;2023-12-14T03:59:11;84753.08;;;30.77;23.15
73974;BME280;62336;-26.094;27.994;2023-12-14T04:01:37;84755.24;;;30.88;23.03
73974;BME280;62336;-26.094;27.994;2023-12-14T04:04:03;84754.97;;;30.53;23.10
73974;BME280;62336;-26.094;27.994;2023-12-14T04:06:29;84755.76;;;31.64;22.52
73974;BME280;62336;-26.094;27.994;2023-12-14T04:08:58;84764.34;;;31.30;22.36
73974;BME280;62336;-26.094;27.994;2023-12-14T04:11:21;84769.00;;;31.43;22.57
73974;BME280;62336;-26.094;27.994;2023-12-14T04:13:46;84767.34;;;30.89;22.86
73974;BME280;62336;-26.094;27.994;2023-12-14T04:16:12;84764.95;;;30.86;22.95
73974;BME280;62336;-26.094;27.994;2023-12-14T04:18:37;84760.93;;;30.72;22.86
73974;BME280;62336;-26.094;27.994;2023-12-14T04:21:04;84764.39;;;30.32;23.23
73974;BME280;62336;-26.094;27.994;2023-12-14T04:23:29;84763.22;;;30.91;22.85
73974;BME280;62336;-26.094;27.994;2023-12-14T04:25:55;84761.38;;;31.18;22.81
73974;BME280;62336;-26.094;27.994;2023-12-14T04:28:21;84762.16;;;30.85;22.99
73974;BME280;62336;-26.094;27.994;2023-12-14T04:30:47;84763.77;;;31.57;22.20
73974;BME280;62336;-26.094;27.994;2023-12-14T04:33:12;84771.81;;;31.81;22.06
73974;BME280;62336;-26.094;27.994;2023-12-14T04:35:38;84770.45;;;31.72;22.34
73974;BME280;62336;-26.094;27.994;2023-12-14T04:38:04;84775.57;;;31.47;22.39
73974;BME280;62336;-26.094;27.994;2023-12-14T04:40:30;84782.45;;;31.32;22.55
73974;BME280;62336;-26.094;27.994;2023-12-14T04:42:55;84779.90;;;31.51;22.29
73974;BME280;62336;-26.094;27.994;2023-12-14T04:45:21;84783.69;;;31.41;22.35
73974;BME280;62336;-26.094;27.994;2023-12-14T04:47:48;84789.21;;;31.17;22.57
73974;BME280;62336;-26.094;27.994;2023-12-14T04:50:13;84790.79;;;32.08;21.94
73974;BME280;62336;-26.094;27.994;2023-12-14T04:52:39;84789.02;;;31.84;22.07
73974;BME280;62336;-26.094;27.994;2023-12-14T04:55:06;84788.30;;;31.44;22.29
73974;BME280;62336;-26.094;27.994;2023-12-14T04:57:30;84787.76;;;30.78;22.69
73974;BME280;62336;-26.094;27.994;2023-12-14T04:59:57;84782.45;;;31.69;21.99
73974;BME280;62336;-26.094;27.994;2023-12-14T05:02:22;84792.46;;;31.34;22.36
73974;BME280;62336;-26.094;27.994;2023-12-14T05:04:48;84794.57;;;31.56;22.37
73974;BME280;62336;-26.094;27.994;2023-12-14T05:07:14;84794.51;;;31.14;22.54
73974;BME280;62336;-26.094;27.994;2023-12-14T05:09:39;84803.00;;;31.09;22.56
73974;BME280;62336;-26.094;27.994;2023-12-14T05:12:06;84800.56;;;31.25;22.39
73974;BME280;62336;-26.094;27.994;2023-12-14T05:14:31;84796.45;;;31.16;22.51
73974;BME280;62336;-26.094;27.994;2023-12-14T05:16:57;84791.46;;;31.02;22.81
73974;BME280;62336;-26.094;27.994;2023-12-14T05:19:23;84789.16;;;31.01;22.79
73974;BME280;62336;-26.094;27.994;2023-12-14T05:21:48;84792.18;;;31.54;22.37
73974;BME280;62336;-26.094;27.994;2023-12-14T05:24:14;84795.81;;;31.85;21.89
73974;BME280;62336;-26.094;27.994;2023-12-14T05:26:40;84797.87;;;31.82;21.89
73974;BME280;62336;-26.094;27.994;2023-12-14T05:29:05;84795.84;;;31.96;21.84
73974;BME280;62336;-26.094;27.994;2023-12-14T05:31:31;84800.38;;;31.80;21.97
73974;BME280;62336;-26.094;27.994;2023-12-14T05:33:57;84804.02;;;32.16;21.68
73974;BME280;62336;-26.094;27.994;2023-12-14T05:36:23;84800.67;;;31.78;21.91
73974;BME280;62336;-26.094;27.994;2023-12-14T05:38:49;84800.27;;;32.08;21.99
73974;BME280;62336;-26.094;27.994;2023-12-14T05:41:14;84804.90;;;32.34;21.68
73974;BME280;62336;-26.094;27.994;2023-12-14T05:43:40;84801.58;;;32.12;21.67
73974;BME280;62336;-26.094;27.994;2023-12-14T05:46:06;84796.10;;;31.92;22.04
73974;BME280;62336;-26.094;27.994;2023-12-14T05:48:33;84798.61;;;31.82;22.16
73974;BME280;62336;-26.094;27.994;2023-12-14T05:50:59;84802.63;;;31.69;22.18
73974;BME280;62336;-26.094;27.994;2023-12-14T05:53:23;84802.26;;;32.69;21.72
73974;BME280;62336;-26.094;27.994;2023-12-14T05:55:49;84802.12;;;32.37;21.74
73974;BME280;62336;-26.094;27.994;2023-12-14T05:58:15;84798.03;;;32.24;21.96
73974;BME280;62336;-26.094;27.994;2023-12-14T06:00:41;84797.86;;;32.31;21.79
73974;BME280;62336;-26.094;27.994;2023-12-14T06:03:07;84805.13;;;32.17;21.99
73974;BME280;62336;-26.094;27.994;2023-12-14T06:05:34;84805.34;;;32.75;21.41
73974;BME280;62336;-26.094;27.994;2023-12-14T06:07:58;84805.12;;;32.47;21.87
73974;BME280;62336;-26.094;27.994;2023-12-14T06:10:24;84805.61;;;31.95;22.22
73974;BME280;62336;-26.094;27.994;2023-12-14T06:12:50;84814.78;;;32.81;21.48
73974;BME280;62336;-26.094;27.994;2023-12-14T06:15:16;84817.01;;;32.56;21.57
73974;BME280;62336;-26.094;27.994;2023-12-14T06:17:42;84814.99;;;32.78;21.53
73974;BME280;62336;-26.094;27.994;2023-12-14T06:20:08;84816.14;;;32.34;21.46
73974;BME280;62336;-26.094;27.994;2023-12-14T06:22:35;84820.29;;;33.03;21.12
73974;BME280;62336;-26.094;27.994;2023-12-14T06:24:59;84818.71;;;32.48;21.41
73974;BME280;62336;-26.094;27.994;2023-12-14T06:27:25;84820.36;;;32.54;21.35
73974;BME280;62336;-26.094;27.994;2023-12-14T06:29:50;84820.15;;;32.96;21.27
73974;BME280;62336;-26.094;27.994;2023-12-14T06:32:16;84824.21;;;33.21;21.18
73974;BME280;62336;-26.094;27.994;2023-12-14T06:34:42;84824.17;;;32.50;21.11
73974;BME280;62336;-26.094;27.994;2023-12-14T06:37:08;84823.19;;;33.62;20.90
73974;BME280;62336;-26.094;27.994;2023-12-14T06:39:34;84824.85;;;33.84;20.71
73974;BME280;62336;-26.094;27.994;2023-12-14T06:41:59;84826.82;;;33.12;20.71
73974;BME280;62336;-26.094;27.994;2023-12-14T06:44:25;84831.07;;;33.25;20.84
73974;BME280;62336;-26.094;27.994;2023-12-14T06:46:51;84827.80;;;33.68;20.48
73974;BME280;62336;-26.094;27.994;2023-12-14T06:49:17;84819.18;;;34.28;19.93
